Time;durP1;ratioP1;P1;durP2;ratioP2;P2;SDS_P1;SDS_P2;PMS_P1;PMS_P2;Temp;Humidity;BMP_temperature;BMP_pressure;BME280_temperature;BME280_humidity;BME280_pressure;Samples;Min_cycle;Max_cycle;Signal;HPM_P1;HPM_P2
2023/04/24 00:01:07;;;;;;;4.30;3.90;;;13.10;99.90;;;;;;5098529;28;20471;-53
2023/04/24 00:03:35;;;;;;;4.10;3.70;;;13.10;99.90;;;;;;5098894;28;20458;-54
2023/04/24 00:06:02;;;;;;;5.13;4.33;;;13.10;99.90;;;;;;5098610;28;20469;-57
2023/04/24 00:08:29;;;;;;;5.30;4.57;;;13.10;99.90;;;;;;5098529;28;20516;-57
2023/04/24 00:10:56;;;;;;;4.90;4.30;;;13.10;99.90;;;;;;5097008;28;20443;-53
2023/04/24 00:13:23;;;;;;;5.67;3.70;;;13.10;99.90;;;;;;5098085;28;20453;-52
2023/04/24 00:15:50;;;;;;;8.33;4.73;;;13.00;99.90;;;;;;5098185;28;20481;-57
2023/04/24 00:18:16;;;;;;;6.53;4.47;;;13.00;99.90;;;;;;5097236;28;20905;-56
2023/04/24 00:20:46;;;;;;;5.33;3.90;;;13.00;99.90;;;;;;5098227;28;20957;-55
2023/04/24 00:23:13;;;;;;;4.50;3.40;;;13.00;99.90;;;;;;5097915;28;20434;-56
2023/04/24 00:25:40;;;;;;;4.37;3.80;;;13.00;99.90;;;;;;5097926;28;20474;-56
2023/04/24 00:28:07;;;;;;;4.53;3.77;;;13.00;99.90;;;;;;5098428;28;20489;-55
2023/04/24 00:30:33;;;;;;;4.53;3.97;;;13.00;99.90;;;;;;5098465;28;20447;-53
2023/04/24 00:33:00;;;;;;;5.50;4.10;;;13.00;99.90;;;;;;5097939;28;20490;-52
2023/04/24 00:35:27;;;;;;;5.50;4.03;;;13.00;99.90;;;;;;5097181;28;20469;-54
2023/04/24 00:37:55;;;;;;;6.30;4.80;;;13.00;99.90;;;;;;5096659;28;20438;-56
2023/04/24 00:40:22;;;;;;;4.63;3.93;;;13.00;99.90;;;;;;5096631;28;20466;-52
2023/04/24 00:42:49;;;;;;;6.50;4.80;;;13.00;99.90;;;;;;5096193;28;20467;-54
2023/04/24 00:45:16;;;;;;;6.30;4.30;;;13.00;99.90;;;;;;5097933;28;20462;-54
2023/04/24 00:47:43;;;;;;;5.57;4.10;;;13.00;99.90;;;;;;5097904;28;20462;-54
2023/04/24 00:50:11;;;;;;;5.07;3.73;;;13.00;99.90;;;;;;5097418;28;20450;-55
2023/04/24 00:52:40;;;;;;;5.80;4.47;;;12.90;99.90;;;;;;5097979;28;20447;-52
2023/04/24 00:55:10;;;;;;;5.30;4.00;;;12.90;99.90;;;;;;5097243;28;20443;-56
2023/04/24 00:57:37;;;;;;;5.13;4.53;;;12.90;99.90;;;;;;5096797;28;20492;-53
2023/04/24 01:00:07;;;;;;;6.70;4.00;;;12.90;99.90;;;;;;5097487;28;20434;-63
2023/04/24 01:02:34;;;;;;;5.17;4.43;;;12.90;99.90;;;;;;5097676;28;20462;-55
2023/04/24 01:05:01;;;;;;;5.97;4.63;;;12.90;99.90;;;;;;5098015;28;20418;-53
2023/04/24 01:07:29;;;;;;;6.80;3.83;;;13.00;99.90;;;;;;5097417;28;20474;-56
2023/04/24 01:09:56;;;;;;;4.20;3.80;;;13.00;99.90;;;;;;5097373;28;20478;-56
2023/04/24 01:12:24;;;;;;;5.07;4.57;;;13.00;99.90;;;;;;5097819;28;20423;-56
2023/04/24 01:14:51;;;;;;;4.10;3.63;;;13.10;99.90;;;;;;5097123;28;20458;-55
2023/04/24 01:17:18;;;;;;;6.10;4.67;;;13.10;99.90;;;;;;5097721;28;20446;-54
2023/04/24 01:19:48;;;;;;;4.43;3.73;;;13.10;99.90;;;;;;5097559;28;20453;-57
2023/04/24 01:22:17;;;;;;;5.00;4.10;;;13.10;99.90;;;;;;5097329;28;20550;-56
2023/04/24 01:24:44;;;;;;;5.50;4.93;;;13.20;99.90;;;;;;5097184;28;20506;-53
2023/04/24 01:27:11;;;;;;;5.03;4.17;;;13.20;99.90;;;;;;5097171;28;20432;-51
2023/04/24 01:29:39;;;;;;;5.13;3.93;;;13.20;99.90;;;;;;5096754;28;20498;-52
2023/04/24 01:32:06;;;;;;;5.07;4.23;;;13.10;99.90;;;;;;5096815;28;20414;-56
2023/04/24 01:34:33;;;;;;;4.40;3.60;;;13.20;99.90;;;;;;5097509;28;20475;-52
2023/04/24 01:37:00;;;;;;;5.03;4.00;;;13.10;99.90;;;;;;5097127;28;20479;-47
2023/04/24 01:39:28;;;;;;;5.30;4.03;;;13.10;99.90;;;;;;5097413;28;20462;-52
2023/04/24 01:41:56;;;;;;;3.67;3.10;;;13.10;99.90;;;;;;5097200;28;20438;-51
2023/04/24 01:44:23;;;;;;;5.93;4.70;;;13.10;99.90;;;;;;5097006;28;20434;-50
2023/04/24 01:47:05;;;;;;;5.30;4.20;;;13.10;99.90;;;;;;5097038;28;20501;-50
2023/04/24 01:49:41;;;;;;;4.77;4.27;;;13.10;99.90;;;;;;5097311;28;20467;-50
2023/04/24 01:52:08;;;;;;;6.63;4.63;;;13.20;99.90;;;;;;5096918;28;20434;-49
2023/04/24 01:54:36;;;;;;;6.53;4.80;;;13.20;99.90;;;;;;5096489;28;20928;-48
2023/04/24 01:57:03;;;;;;;6.10;5.17;;;13.20;99.90;;;;;;5096451;28;20437;-53
2023/04/24 01:59:32;;;;;;;10.10;4.70;;;13.20;99.90;;;;;;5096679;28;20493;-51
2023/04/24 02:01:59;;;;;;;5.90;4.80;;;13.20;99.90;;;;;;5096903;28;20446;-53
2023/04/24 02:04:26;;;;;;;4.80;4.30;;;13.10;99.90;;;;;;5096626;28;20462;-54
2023/04/24 02:06:55;;;;;;;7.43;4.70;;;13.10;99.90;;;;;;5096358;28;20438;-56
2023/04/24 02:09:21;;;;;;;4.53;4.10;;;13.20;99.90;;;;;;5096692;28;20533;-53
2023/04/24 02:11:50;;;;;;;7.53;4.60;;;13.20;99.90;;;;;;5096397;28;20473;-56
2023/04/24 02:14:17;;;;;;;6.00;4.30;;;13.30;99.90;;;;;;5096369;28;20442;-50
2023/04/24 02:16:43;;;;;;;6.50;5.00;;;13.30;99.90;;;;;;5096641;28;20441;-51
2023/04/24 02:19:22;;;;;;;6.57;4.60;;;13.40;99.90;;;;;;5096940;28;20411;-54
2023/04/24 02:21:49;;;;;;;6.33;4.80;;;13.30;99.90;;;;;;5097124;28;20414;-50
2023/04/24 02:24:16;;;;;;;5.20;4.23;;;13.40;99.90;;;;;;5096108;28;20457;-51
2023/04/24 02:26:43;;;;;;;4.80;4.27;;;13.40;99.90;;;;;;5096473;28;20453;-54
2023/04/24 02:29:11;;;;;;;5.83;4.90;;;13.40;99.90;;;;;;5096515;28;20486;-54
2023/04/24 02:31:38;;;;;;;5.17;4.30;;;13.50;99.90;;;;;;5096346;28;20457;-54
2023/04/24 02:34:05;;;;;;;5.00;4.50;;;13.50;99.90;;;;;;5096306;28;20445;-53
2023/04/24 02:36:32;;;;;;;5.23;4.73;;;13.50;99.90;;;;;;5096512;28;20490;-55
2023/04/24 02:38:59;;;;;;;4.80;4.27;;;13.50;99.90;;;;;;5095981;28;20460;-54
2023/04/24 02:41:31;;;;;;;6.70;5.40;;;13.60;99.90;;;;;;5096483;28;20462;-55
2023/04/24 02:43:58;;;;;;;8.07;4.90;;;13.50;99.90;;;;;;5096391;28;20422;-56
2023/04/24 02:46:26;;;;;;;4.93;4.20;;;13.50;99.90;;;;;;5096421;28;20449;-55
2023/04/24 02:49:06;;;;;;;9.10;4.53;;;13.50;99.90;;;;;;5095120;28;20473;-56
2023/04/24 02:51:33;;;;;;;10.30;4.90;;;13.60;99.90;;;;;;5095493;28;20470;-52
2023/04/24 02:53:59;;;;;;;4.30;3.67;;;13.50;99.90;;;;;;5095327;28;20473;-54
2023/04/24 02:56:26;;;;;;;6.13;4.20;;;13.50;99.90;;;;;;5095326;28;20430;-53
2023/04/24 02:58:53;;;;;;;5.00;4.17;;;13.50;99.90;;;;;;5094677;28;20442;-56
2023/04/24 03:01:22;;;;;;;5.77;4.47;;;13.40;99.90;;;;;;5095306;28;20438;-55
2023/04/24 03:03:50;;;;;;;6.50;4.63;;;13.40;99.90;;;;;;5094837;28;20438;-51
2023/04/24 03:06:17;;;;;;;5.20;4.40;;;13.40;99.90;;;;;;5099382;28;20465;-53
2023/04/24 03:08:43;;;;;;;6.70;4.43;;;13.40;99.90;;;;;;5100091;28;20580;-54
2023/04/24 03:11:10;;;;;;;5.03;4.20;;;13.40;99.90;;;;;;5099753;28;20442;-54
2023/04/24 03:13:37;;;;;;;6.17;5.17;;;13.40;99.90;;;;;;5099927;28;20439;-52
2023/04/24 03:16:04;;;;;;;7.50;5.00;;;13.40;99.90;;;;;;5099261;28;20485;-54
2023/04/24 03:18:32;;;;;;;7.00;4.83;;;13.40;99.90;;;;;;5099582;28;20533;-55
2023/04/24 03:21:00;;;;;;;4.80;4.30;;;13.40;99.90;;;;;;5099405;28;20445;-55
2023/04/24 03:23:27;;;;;;;7.43;5.40;;;13.40;99.90;;;;;;5099122;28;20422;-53
2023/04/24 03:25:54;;;;;;;4.63;4.07;;;13.50;99.90;;;;;;5099517;28;20453;-54
2023/04/24 03:28:21;;;;;;;11.33;4.53;;;13.40;99.90;;;;;;5099754;28;20992;-56
2023/04/24 03:30:48;;;;;;;16.17;5.40;;;13.40;99.90;;;;;;5098895;28;20486;-55
2023/04/24 03:33:15;;;;;;;8.53;4.80;;;13.40;99.90;;;;;;5099048;28;20453;-63
2023/04/24 03:35:42;;;;;;;8.77;4.40;;;13.50;99.90;;;;;;5099037;28;20422;-55
2023/04/24 03:38:10;;;;;;;6.60;4.50;;;13.50;99.90;;;;;;5097997;28;20473;-50
2023/04/24 03:40:37;;;;;;;4.63;3.87;;;13.50;99.90;;;;;;5098408;28;20426;-56
2023/04/24 03:43:04;;;;;;;6.60;4.53;;;13.50;99.90;;;;;;5099203;28;20492;-56
2023/04/24 03:45:30;;;;;;;4.93;4.20;;;13.50;99.90;;;;;;5098145;28;20457;-57
2023/04/24 03:47:57;;;;;;;5.93;4.30;;;13.50;99.90;;;;;;5098635;28;20450;-56
2023/04/24 03:50:26;;;;;;;7.90;5.63;;;13.50;99.90;;;;;;5099006;28;20442;-54
2023/04/24 03:52:53;;;;;;;5.23;4.43;;;13.50;99.90;;;;;;5098183;28;20426;-57
2023/04/24 03:55:21;;;;;;;4.63;4.23;;;13.50;99.90;;;;;;5097370;28;20470;-53
2023/04/24 03:57:48;;;;;;;6.80;4.53;;;13.50;99.90;;;;;;5098588;28;20445;-55
2023/04/24 04:00:16;;;;;;;5.33;4.57;;;13.50;99.90;;;;;;5098095;28;20462;-58
2023/04/24 04:02:42;;;;;;;4.60;4.20;;;13.50;99.90;;;;;;5097790;28;20466;-55
2023/04/24 04:05:10;;;;;;;5.50;4.63;;;13.50;99.90;;;;;;5098012;28;20430;-54
2023/04/24 04:07:36;;;;;;;7.13;5.27;;;13.50;99.90;;;;;;5097573;28;20458;-54
2023/04/24 04:10:04;;;;;;;5.03;4.53;;;13.60;99.90;;;;;;5097280;28;20666;-55
2023/04/24 04:12:32;;;;;;;5.10;4.57;;;13.50;99.90;;;;;;5096787;28;20434;-53
2023/04/24 04:14:59;;;;;;;7.13;5.17;;;13.50;99.90;;;;;;5097612;28;20450;-52
2023/04/24 04:17:26;;;;;;;6.90;4.33;;;13.50;99.90;;;;;;5098296;28;20446;-52
2023/04/24 04:19:53;;;;;;;5.50;4.90;;;13.50;99.90;;;;;;5098292;28;20473;-49
2023/04/24 04:22:21;;;;;;;5.90;4.77;;;13.50;99.90;;;;;;5097450;28;20453;-54
2023/04/24 04:24:57;;;;;;;5.53;4.13;;;13.50;99.90;;;;;;5098370;28;20474;-56
2023/04/24 04:27:24;;;;;;;6.37;4.60;;;13.50;99.90;;;;;;5098505;28;20430;-56
2023/04/24 04:29:52;;;;;;;5.93;4.87;;;13.50;99.90;;;;;;5097915;28;20500;-54
2023/04/24 04:32:19;;;;;;;6.27;4.90;;;13.50;99.90;;;;;;5098118;28;20439;-57
2023/04/24 04:34:46;;;;;;;4.77;4.27;;;13.50;99.90;;;;;;5098682;28;20435;-53
2023/04/24 04:37:14;;;;;;;5.87;5.37;;;13.50;99.90;;;;;;5097682;28;20450;-56
2023/04/24 04:39:41;;;;;;;9.53;5.00;;;13.50;99.90;;;;;;5097892;28;20427;-58
2023/04/24 04:42:07;;;;;;;6.30;4.10;;;13.60;99.90;;;;;;5098391;28;20494;-53
2023/04/24 04:44:35;;;;;;;6.63;3.77;;;13.60;99.90;;;;;;5098389;28;20466;-55
2023/04/24 04:47:07;;;;;;;6.57;4.60;;;13.60;99.90;;;;;;5097850;28;20534;-54
2023/04/24 04:49:34;;;;;;;6.73;4.33;;;13.60;99.90;;;;;;5096632;28;20496;-56
2023/04/24 04:52:01;;;;;;;9.10;5.20;;;13.70;99.90;;;;;;5096604;28;20720;-56
2023/04/24 04:54:28;;;;;;;6.40;5.50;;;13.70;99.90;;;;;;5097055;28;20510;-54
2023/04/24 04:56:55;;;;;;;4.73;4.00;;;13.70;99.90;;;;;;5096475;28;20455;-55
2023/04/24 04:59:22;;;;;;;6.73;4.50;;;13.70;99.90;;;;;;5097343;28;20430;-52
2023/04/24 05:01:49;;;;;;;5.60;4.50;;;13.80;99.90;;;;;;5096604;28;20455;-55
2023/04/24 05:04:17;;;;;;;5.50;4.00;;;13.70;99.90;;;;;;5096185;28;20434;-57
2023/04/24 05:06:44;;;;;;;4.60;3.73;;;13.70;99.90;;;;;;5096482;28;20470;-55
2023/04/24 05:09:11;;;;;;;5.80;4.20;;;13.70;99.90;;;;;;5096743;28;20550;-52
2023/04/24 05:11:38;;;;;;;6.93;4.47;;;13.80;99.90;;;;;;5097023;28;20453;-56
2023/04/24 05:14:05;;;;;;;4.40;3.80;;;13.80;99.90;;;;;;5096873;28;20514;-52
2023/04/24 05:16:32;;;;;;;9.73;4.10;;;13.80;99.90;;;;;;5096862;28;20410;-55
2023/04/24 05:18:58;;;;;;;5.83;4.40;;;13.80;99.90;;;;;;5096354;28;20478;-54
2023/04/24 05:21:27;;;;;;;5.13;3.83;;;13.70;99.90;;;;;;5096358;28;20418;-56
2023/04/24 05:23:53;;;;;;;4.03;3.03;;;13.80;99.90;;;;;;5096162;28;20443;-57
2023/04/24 05:26:20;;;;;;;4.03;3.53;;;13.80;99.90;;;;;;5096459;28;20478;-52
2023/04/24 05:28:47;;;;;;;8.70;4.03;;;13.80;99.90;;;;;;5095674;28;20473;-55
2023/04/24 05:31:14;;;;;;;4.60;3.20;;;13.80;99.90;;;;;;5096454;28;20470;-56
2023/04/24 05:33:41;;;;;;;4.60;3.60;;;13.80;99.90;;;;;;5095675;28;20450;-55
2023/04/24 05:36:08;;;;;;;4.87;3.60;;;13.80;99.90;;;;;;5096095;28;20470;-57
2023/04/24 05:38:36;;;;;;;6.10;3.10;;;13.80;99.90;;;;;;5096427;28;20465;-59
2023/04/24 05:41:04;;;;;;;3.53;3.00;;;13.80;99.90;;;;;;5096838;28;20442;-59
2023/04/24 05:43:30;;;;;;;3.90;3.33;;;13.80;99.90;;;;;;5097359;28;20431;-61
2023/04/24 05:45:57;;;;;;;3.33;2.60;;;13.90;99.90;;;;;;5097440;28;20446;-59
2023/04/24 05:48:28;;;;;;;4.73;2.83;;;13.90;99.90;;;;;;5097534;28;20422;-56
2023/04/24 05:50:55;;;;;;;4.93;2.83;;;13.90;99.90;;;;;;5097095;28;20442;-62
2023/04/24 05:53:22;;;;;;;3.33;3.00;;;13.90;99.90;;;;;;5097075;28;20434;-59
2023/04/24 05:55:50;;;;;;;3.93;2.90;;;13.90;99.90;;;;;;5096290;28;20480;-58
2023/04/24 05:58:17;;;;;;;4.67;2.73;;;13.90;99.90;;;;;;5096284;28;20470;-60
2023/04/24 06:00:46;;;;;;;2.87;2.23;;;13.90;99.90;;;;;;5096033;28;20560;-56
2023/04/24 06:03:13;;;;;;;3.03;2.73;;;13.90;99.90;;;;;;5096581;28;20490;-56
2023/04/24 06:05:40;;;;;;;4.47;2.67;;;14.00;99.90;;;;;;5096778;28;20442;-59
2023/04/24 06:08:06;;;;;;;3.57;2.63;;;14.00;99.90;;;;;;5096551;28;20750;-62
2023/04/24 06:10:33;;;;;;;7.80;2.20;;;14.10;99.90;;;;;;5096399;28;20568;-62
2023/04/24 06:13:01;;;;;;;4.17;2.30;;;14.10;99.90;;;;;;5096341;28;20493;-59
2023/04/24 06:15:30;;;;;;;2.23;1.83;;;14.30;99.90;;;;;;5096159;28;20450;-60
2023/04/24 06:17:57;;;;;;;3.87;2.40;;;14.20;99.90;;;;;;5095991;28;20463;-57
2023/04/24 06:20:24;;;;;;;3.10;1.70;;;14.30;99.90;;;;;;5096014;28;20457;-56
2023/04/24 06:22:51;;;;;;;2.60;2.13;;;14.30;99.90;;;;;;5095943;28;20458;-57
2023/04/24 06:25:18;;;;;;;2.10;1.70;;;14.30;99.90;;;;;;5096610;28;20453;-59
2023/04/24 06:27:45;;;;;;;1.60;1.43;;;14.30;99.90;;;;;;5096547;28;20454;-57
2023/04/24 06:30:14;;;;;;;2.03;1.70;;;14.20;99.90;;;;;;5096002;28;20474;-59
2023/04/24 06:32:41;;;;;;;2.60;1.50;;;14.20;99.90;;;;;;5096012;28;20442;-61
2023/04/24 06:35:09;;;;;;;14.30;7.17;;;14.10;99.90;;;;;;5096112;28;20426;-61
2023/04/24 06:37:36;;;;;;;3.50;2.83;;;14.10;99.90;;;;;;5096154;28;20761;-61
2023/04/24 06:40:06;;;;;;;1.73;1.50;;;14.00;99.90;;;;;;5098264;28;20453;-61
2023/04/24 06:42:33;;;;;;;3.30;1.90;;;14.10;99.90;;;;;;5100619;28;20445;-59
2023/04/24 06:45:00;;;;;;;2.87;2.20;;;14.20;99.90;;;;;;5100272;28;20605;-58
2023/04/24 06:47:29;;;;;;;2.27;1.30;;;14.40;99.90;;;;;;5099764;28;20462;-59
2023/04/24 06:49:55;;;;;;;4.77;1.70;;;14.50;99.90;;;;;;5099887;28;20489;-62
2023/04/24 06:52:22;;;;;;;1.97;1.53;;;14.70;99.90;;;;;;5099997;28;20513;-62
2023/04/24 06:54:49;;;;;;;2.60;1.73;;;14.80;99.90;;;;;;5099861;28;20458;-60
2023/04/24 06:57:17;;;;;;;3.17;1.83;;;14.90;99.90;;;;;;5100054;28;20466;-60
2023/04/24 06:59:43;;;;;;;3.20;1.70;;;15.10;99.90;;;;;;5100395;28;20438;-57
2023/04/24 07:02:10;;;;;;;2.13;1.70;;;15.30;99.90;;;;;;5099020;28;20480;-61
2023/04/24 07:04:39;;;;;;;2.00;1.80;;;15.40;99.90;;;;;;5098927;28;20434;-59
2023/04/24 07:07:06;;;;;;;5.70;1.27;;;15.50;99.90;;;;;;5099488;28;20461;-59
2023/04/24 07:09:35;;;;;;;2.00;1.37;;;15.60;99.90;;;;;;5099740;28;20466;-57
2023/04/24 07:12:02;;;;;;;3.33;2.00;;;15.80;99.90;;;;;;5099066;28;20505;-58
2023/04/24 07:14:28;;;;;;;3.53;1.70;;;15.80;99.90;;;;;;5098999;28;20450;-58
2023/04/24 07:16:56;;;;;;;1.30;1.20;;;16.10;99.90;;;;;;5098928;28;20439;-60
2023/04/24 07:19:23;;;;;;;4.90;1.63;;;16.40;99.90;;;;;;5098350;28;20546;-59
2023/04/24 07:21:52;;;;;;;7.47;1.63;;;16.40;99.90;;;;;;5098968;28;20466;-58
2023/04/24 07:24:19;;;;;;;3.20;1.00;;;16.50;99.90;;;;;;5098465;28;20470;-61
2023/04/24 07:26:46;;;;;;;2.43;1.47;;;16.80;99.90;;;;;;5092486;28;20489;-62
2023/04/24 07:29:14;;;;;;;1.43;1.13;;;17.10;99.90;;;;;;5098284;28;20445;-61
2023/04/24 07:31:41;;;;;;;1.33;1.10;;;17.30;99.90;;;;;;5098828;28;20422;-63
2023/04/24 07:34:08;;;;;;;1.87;1.20;;;17.50;99.90;;;;;;5098422;28;20506;-61
2023/04/24 07:36:35;;;;;;;1.57;1.00;;;17.40;99.90;;;;;;5097505;28;20438;-61
2023/04/24 07:39:03;;;;;;;1.63;1.07;;;17.40;99.90;;;;;;5090689;28;20445;-61
2023/04/24 07:41:30;;;;;;;3.40;1.00;;;17.30;99.90;;;;;;5090536;28;20527;-62
2023/04/24 07:43:57;;;;;;;1.27;1.10;;;17.10;99.90;;;;;;5090352;28;20809;-65
2023/04/24 07:46:24;;;;;;;3.20;1.07;;;17.00;99.90;;;;;;5089394;28;20462;-63
2023/04/24 07:48:51;;;;;;;1.10;0.90;;;17.00;99.90;;;;;;5088693;28;20882;-61
2023/04/24 07:51:18;;;;;;;2.30;0.90;;;17.10;99.90;;;;;;5091475;28;20525;-61
2023/04/24 07:53:45;;;;;;;1.30;1.10;;;17.60;99.90;;;;;;5098740;28;20466;-65
2023/04/24 07:56:13;;;;;;;1.43;0.80;;;18.40;99.90;;;;;;5092665;28;20474;-67
2023/04/24 07:58:40;;;;;;;1.97;1.03;;;19.30;99.90;;;;;;5082645;28;20544;-67
2023/04/24 08:01:08;;;;;;;2.30;1.20;;;20.40;99.90;;;;;;5083211;28;20426;-61
2023/04/24 08:03:34;;;;;;;1.20;1.10;;;21.90;99.90;;;;;;5090721;28;20485;-64
2023/04/24 08:06:01;;;;;;;3.63;1.30;;;23.20;99.90;;;;;;5082865;28;20442;-61
2023/04/24 08:08:29;;;;;;;2.37;1.20;;;24.40;95.80;;;;;;5079576;28;20556;-63
2023/04/24 08:10:56;;;;;;;2.57;1.80;;;25.20;91.00;;;;;;5079009;28;20564;-62
2023/04/24 08:13:24;;;;;;;1.40;1.30;;;25.90;86.20;;;;;;5076856;28;20504;-68
2023/04/24 08:15:51;;;;;;;3.90;1.33;;;26.10;80.20;;;;;;5080153;28;20550;-60
2023/04/24 08:18:18;;;;;;;1.60;1.40;;;26.20;77.60;;;;;;5083015;28;20467;-63
2023/04/24 08:20:45;;;;;;;2.93;2.20;;;25.70;75.60;;;;;;5083343;28;20549;-62
2023/04/24 08:23:12;;;;;;;1.83;1.30;;;24.70;76.60;;;;;;5076893;28;20459;-65
2023/04/24 08:25:39;;;;;;;3.63;2.20;;;23.80;80.40;;;;;;5077344;28;20475;-63
2023/04/24 08:28:07;;;;;;;2.07;1.43;;;23.20;82.60;;;;;;5077212;28;20496;-63
2023/04/24 08:30:35;;;;;;;2.13;1.60;;;22.90;85.60;;;;;;5076855;28;20573;-62
2023/04/24 08:33:02;;;;;;;3.20;1.50;;;23.30;85.40;;;;;;5076880;28;20534;-65
2023/04/24 08:35:31;;;;;;;1.40;1.13;;;23.70;83.40;;;;;;5077198;28;20446;-62
2023/04/24 08:37:58;;;;;;;5.83;1.20;;;23.80;84.50;;;;;;5076709;28;20506;-63
2023/04/24 08:40:29;;;;;;;1.80;1.30;;;23.90;82.40;;;;;;5077131;28;20471;-62
2023/04/24 08:42:57;;;;;;;1.40;1.23;;;23.80;80.80;;;;;;5076624;28;20498;-62
2023/04/24 08:45:25;;;;;;;1.90;1.27;;;23.50;80.40;;;;;;5076436;28;20438;-59
2023/04/24 08:47:54;;;;;;;1.60;1.17;;;22.90;82.40;;;;;;5076085;28;20907;-58
2023/04/24 08:50:21;;;;;;;1.50;1.20;;;23.00;83.40;;;;;;5076721;28;20509;-63
2023/04/24 08:52:50;;;;;;;1.87;1.23;;;23.30;80.40;;;;;;5076253;28;20450;-62
2023/04/24 08:55:18;;;;;;;1.47;1.27;;;23.50;77.80;;;;;;5076968;28;20570;-60
2023/04/24 08:57:48;;;;;;;1.57;1.27;;;23.30;79.00;;;;;;5077144;28;20512;-66
2023/04/24 09:00:15;;;;;;;2.97;1.93;;;23.90;78.10;;;;;;5076586;28;20988;-64
2023/04/24 09:02:44;;;;;;;2.03;1.60;;;24.30;75.80;;;;;;5075416;28;20462;-66
2023/04/24 09:05:14;;;;;;;1.40;1.30;;;23.80;75.10;;;;;;5075594;28;20443;-65
2023/04/24 09:07:44;;;;;;;1.93;1.60;;;23.00;78.30;;;;;;5075883;28;20430;-61
2023/04/24 09:10:12;;;;;;;2.80;1.13;;;22.30;82.10;;;;;;5075347;28;20489;-62
2023/04/24 09:12:39;;;;;;;1.70;1.37;;;22.20;85.60;;;;;;5075365;28;20506;-63
2023/04/24 09:15:09;;;;;;;2.13;1.13;;;22.50;84.60;;;;;;5075683;28;20781;-60
2023/04/24 09:17:36;;;;;;;1.53;1.20;;;22.20;84.70;;;;;;5075277;28;20470;-61
2023/04/24 09:20:04;;;;;;;4.10;1.37;;;22.00;84.90;;;;;;5075292;28;20930;-61
2023/04/24 09:22:32;;;;;;;1.90;1.07;;;21.50;86.10;;;;;;5075355;28;20466;-62
2023/04/24 09:25:07;;;;;;;2.10;1.40;;;21.00;90.30;;;;;;5075226;28;20930;-59
2023/04/24 09:27:34;;;;;;;2.27;1.40;;;20.50;92.20;;;;;;5080526;28;20441;-62
2023/04/24 09:30:02;;;;;;;1.87;1.20;;;20.10;94.40;;;;;;5075468;28;20478;-61
2023/04/24 09:32:29;;;;;;;5.27;1.37;;;19.70;97.10;;;;;;5075352;28;20496;-62
2023/04/24 09:35:12;;;;;;;3.23;2.07;;;19.50;99.90;;;;;;5075273;28;20474;-63
2023/04/24 09:37:44;;;;;;;4.70;2.10;;;19.20;99.90;;;;;;5075011;28;20496;-60
2023/04/24 09:40:17;;;;;;;2.90;1.27;;;19.00;99.90;;;;;;5075328;28;20501;-61
2023/04/24 09:42:47;;;;;;;2.60;1.60;;;18.90;99.90;;;;;;5075329;28;20485;-61
2023/04/24 09:45:14;;;;;;;3.90;1.27;;;19.00;99.90;;;;;;5074988;28;20565;-62
2023/04/24 09:47:42;;;;;;;1.30;1.20;;;19.20;99.90;;;;;;5075206;28;20529;-61
2023/04/24 09:50:16;;;;;;;4.83;3.07;;;19.20;99.90;;;;;;5075291;28;20582;-61
2023/04/24 09:52:46;;;;;;;8.50;3.63;;;19.10;99.90;;;;;;5074649;28;20514;-62
2023/04/24 09:55:18;;;;;;;5.17;3.23;;;19.20;99.90;;;;;;5074982;28;20460;-63
2023/04/24 09:57:55;;;;;;;1.43;1.20;;;19.40;99.90;;;;;;5075084;28;20872;-62
2023/04/24 10:00:27;;;;;;;2.17;1.77;;;19.40;99.90;;;;;;5075117;28;20521;-62
2023/04/24 10:02:58;;;;;;;2.27;1.43;;;19.40;99.90;;;;;;5074624;28;20474;-62
2023/04/24 10:05:27;;;;;;;2.37;1.27;;;19.30;99.90;;;;;;5075017;28;20466;-62
2023/04/24 10:08:01;;;;;;;2.57;1.33;;;19.10;99.90;;;;;;5074927;28;20561;-64
2023/04/24 10:10:27;;;;;;;2.47;1.20;;;19.10;99.90;;;;;;5074901;28;20569;-65
2023/04/24 10:12:55;;;;;;;1.73;1.37;;;19.30;99.90;;;;;;5074893;28;20951;-62
2023/04/24 10:15:22;;;;;;;1.43;1.20;;;19.80;99.90;;;;;;5074557;28;20453;-62
2023/04/24 10:17:52;;;;;;;2.03;1.30;;;20.20;99.90;;;;;;5074566;28;20938;-64
2023/04/24 10:20:21;;;;;;;1.33;1.00;;;20.60;99.90;;;;;;5074742;28;20471;-63
2023/04/24 10:22:53;;;;;;;1.37;1.10;;;21.00;99.90;;;;;;5074409;28;20461;-63
2023/04/24 10:25:23;;;;;;;1.10;0.93;;;20.90;98.90;;;;;;5074760;28;20498;-62
2023/04/24 10:27:51;;;;;;;1.10;0.80;;;20.70;99.60;;;;;;5074459;28;20442;-63
2023/04/24 10:30:19;;;;;;;2.40;1.33;;;20.50;99.90;;;;;;5074307;28;20497;-60
2023/04/24 10:32:47;;;;;;;1.07;0.90;;;20.40;99.90;;;;;;5074607;28;20474;-63
2023/04/24 10:35:15;;;;;;;1.70;1.37;;;20.50;99.90;;;;;;5074562;28;20454;-62
2023/04/24 10:37:46;;;;;;;1.93;1.30;;;20.40;99.90;;;;;;5074219;28;20947;-61
2023/04/24 10:40:18;;;;;;;1.73;1.20;;;20.20;99.90;;;;;;5074677;28;20431;-63
2023/04/24 10:42:48;;;;;;;2.17;1.10;;;19.70;99.90;;;;;;5074326;28;20462;-63
2023/04/24 10:45:21;;;;;;;1.90;1.23;;;19.30;99.90;;;;;;5074783;28;20448;-63
2023/04/24 10:47:58;;;;;;;4.50;1.43;;;19.10;99.90;;;;;;5074602;28;20485;-64
2023/04/24 10:50:29;;;;;;;1.20;1.00;;;18.90;99.90;;;;;;5074483;28;20441;-65
2023/04/24 10:53:07;;;;;;;2.90;1.80;;;18.60;99.90;;;;;;5074093;28;20446;-62
2023/04/24 10:55:49;;;;;;;1.63;1.00;;;18.40;99.90;;;;;;5075049;28;20472;-64
2023/04/24 10:58:22;;;;;;;2.73;1.53;;;18.30;99.90;;;;;;5074654;28;20450;-61
2023/04/24 11:00:57;;;;;;;1.50;1.40;;;18.30;99.90;;;;;;5074538;28;20447;-61
2023/04/24 11:03:27;;;;;;;3.00;1.60;;;18.30;99.90;;;;;;5074474;28;20430;-62
2023/04/24 11:05:57;;;;;;;2.07;1.50;;;18.30;99.90;;;;;;5074333;28;20532;-64
2023/04/24 11:08:29;;;;;;;4.03;1.47;;;18.40;99.90;;;;;;5074599;28;20533;-61
2023/04/24 11:10:58;;;;;;;1.20;1.00;;;18.80;99.90;;;;;;5073866;28;20963;-62
2023/04/24 11:13:29;;;;;;;1.50;1.10;;;19.30;99.90;;;;;;5074755;28;20452;-61
2023/04/24 11:16:21;;;;;;;1.70;1.10;;;19.80;99.90;;;;;;5074572;28;20577;-62
2023/04/24 11:18:54;;;;;;;1.57;1.47;;;20.30;99.90;;;;;;5075455;28;20426;-63
2023/04/24 11:21:23;;;;;;;1.73;1.27;;;20.30;99.90;;;;;;5075131;28;20437;-61
2023/04/24 11:23:50;;;;;;;2.00;1.70;;;20.20;99.90;;;;;;5074926;28;20438;-61
2023/04/24 11:26:20;;;;;;;2.10;1.43;;;19.80;99.90;;;;;;5077205;28;20918;-60
2023/04/24 11:28:52;;;;;;;2.10;1.37;;;19.60;99.90;;;;;;5078849;28;20557;-63
2023/04/24 11:31:39;;;;;;;1.33;1.23;;;19.40;99.90;;;;;;5079191;28;21025;-62
2023/04/24 11:34:10;;;;;;;1.97;1.40;;;19.10;99.90;;;;;;5078359;28;20516;-61
2023/04/24 11:36:37;;;;;;;5.57;1.60;;;18.80;99.90;;;;;;5078539;28;20465;-63
2023/04/24 11:39:04;;;;;;;3.40;2.00;;;18.30;99.90;;;;;;5079097;28;20517;-64
2023/04/24 11:41:32;;;;;;;1.20;1.10;;;17.60;99.90;;;;;;5079297;28;20525;-62
2023/04/24 11:44:01;;;;;;;5.87;1.50;;;17.00;99.90;;;;;;5079390;28;20984;-62
2023/04/24 11:46:31;;;;;;;1.63;1.53;;;16.60;99.90;;;;;;5079495;28;20502;-64
2023/04/24 11:48:58;;;;;;;2.20;1.63;;;16.50;99.90;;;;;;5079261;28;20774;-64
2023/04/24 11:51:26;;;;;;;4.30;2.33;;;16.50;99.90;;;;;;5077470;28;20569;-61
2023/04/24 11:53:53;;;;;;;2.23;2.03;;;16.60;99.90;;;;;;5077598;28;20446;-62
2023/04/24 11:56:21;;;;;;;1.90;1.63;;;16.80;99.90;;;;;;5077443;28;20806;-64
2023/04/24 11:58:49;;;;;;;1.23;1.13;;;17.00;99.90;;;;;;5077453;28;20632;-57
2023/04/24 12:01:17;;;;;;;3.17;1.60;;;17.10;99.90;;;;;;5076903;28;21033;-62
2023/04/24 12:03:49;;;;;;;1.70;1.60;;;17.30;99.90;;;;;;5077301;28;20812;-61
2023/04/24 12:06:16;;;;;;;2.40;1.40;;;17.40;99.90;;;;;;5077300;28;20435;-62
2023/04/24 12:08:47;;;;;;;1.63;1.40;;;17.60;99.90;;;;;;5076983;28;20478;-63
2023/04/24 12:11:17;;;;;;;1.80;1.47;;;17.90;99.90;;;;;;5076801;28;20557;-62
2023/04/24 12:13:44;;;;;;;1.53;1.40;;;18.10;99.90;;;;;;5077166;28;20474;-61
2023/04/24 12:16:11;;;;;;;9.53;1.40;;;18.30;99.90;;;;;;5076925;28;20563;-58
2023/04/24 12:18:45;;;;;;;2.23;1.70;;;18.40;99.90;;;;;;5076896;28;20484;-60
2023/04/24 12:21:19;;;;;;;1.70;1.60;;;18.70;99.90;;;;;;5076670;28;20450;-62
2023/04/24 12:23:46;;;;;;;1.53;1.40;;;19.00;99.90;;;;;;5076585;28;20561;-61
2023/04/24 12:26:17;;;;;;;1.20;1.10;;;19.20;99.90;;;;;;5077708;28;20518;-63
2023/04/24 12:28:44;;;;;;;2.17;1.50;;;19.20;99.90;;;;;;5076916;28;20753;-60
2023/04/24 12:31:11;;;;;;;1.43;1.10;;;19.10;99.90;;;;;;5076602;28;20481;-61
2023/04/24 12:33:38;;;;;;;1.33;1.13;;;19.10;99.90;;;;;;5076602;28;20449;-63
2023/04/24 12:36:07;;;;;;;1.97;1.53;;;19.20;99.90;;;;;;5076535;28;20478;-61
2023/04/24 12:38:40;;;;;;;1.40;1.30;;;19.20;99.90;;;;;;5076413;28;20930;-64
2023/04/24 12:41:08;;;;;;;1.33;1.20;;;19.20;99.90;;;;;;5076524;28;20513;-62
2023/04/24 12:43:36;;;;;;;7.13;1.30;;;19.10;99.90;;;;;;5076695;28;20474;-64
2023/04/24 12:46:03;;;;;;;2.27;1.40;;;19.20;99.90;;;;;;5076539;28;20504;-63
2023/04/24 12:48:31;;;;;;;1.57;1.10;;;19.30;99.90;;;;;;5076430;28;20445;-64
2023/04/24 12:51:01;;;;;;;2.43;1.17;;;19.40;99.90;;;;;;5076307;28;20458;-62